Time;durP1;ratioP1;P1;durP2;ratioP2;P2;SDS_P1;SDS_P2;PMS_P1;PMS_P2;Temp;Humidity;BMP_temperature;BMP_pressure;BME280_temperature;BME280_humidity;BME280_pressure;Samples;Min_cycle;Max_cycle;Signal;HPM_P1;HPM_P2
2021/03/12 00:00:43;;;;;;;1.60;0.20;;;6.00;83.80;;;4.61;79.29;95392.84;4948856;28;20035;-68
2021/03/12 00:03:21;;;;;;;0.15;0.10;;;5.90;84.30;;;4.58;80.35;95385.38;4940774;28;20184;-69
2021/03/12 00:05:55;;;;;;;0.20;0.13;;;5.90;84.10;;;4.57;80.77;95392.38;4936002;28;20033;-69
2021/03/12 00:08:31;;;;;;;1.38;0.35;;;5.90;84.10;;;4.58;80.04;95395.78;4953166;28;20042;-69
2021/03/12 00:10:57;;;;;;;0.90;0.20;;;6.00;83.80;;;4.57;78.84;95388.94;4952772;28;20047;-69
2021/03/12 00:13:24;;;;;;;0.32;0.10;;;5.90;83.50;;;4.55;78.78;95393.53;4935985;28;20233;-69
2021/03/12 00:15:50;;;;;;;0.40;0.20;;;5.90;83.50;;;4.56;78.51;95392.53;4978960;28;20043;-69
2021/03/12 00:18:17;;;;;;;0.60;0.20;;;6.00;83.00;;;4.56;78.39;95392.53;4926968;28;20042;-69
2021/03/12 00:20:43;;;;;;;1.95;0.20;;;6.10;82.90;;;4.58;78.13;95393.97;4961311;28;20038;-69
2021/03/12 00:23:09;;;;;;;0.10;0.10;;;6.10;82.70;;;4.59;78.39;95402.59;4952467;28;20050;-69
2021/03/12 00:25:45;;;;;;;0.57;0.20;;;6.10;82.90;;;4.57;79.72;95404.56;4948342;28;20410;-70
2021/03/12 00:28:12;;;;;;;0.10;0.10;;;6.00;82.60;;;4.54;78.48;95408.34;4932688;28;20504;-69
2021/03/12 00:30:38;;;;;;;0.32;0.10;;;6.00;82.70;;;4.54;78.11;95418.75;4969421;28;20035;-69
2021/03/12 00:33:04;;;;;;;0.70;0.40;;;5.90;82.40;;;4.52;78.32;95423.28;4932715;29;20126;-69
2021/03/12 00:35:37;;;;;;;0.13;0.10;;;5.90;82.70;;;4.50;78.44;95420.03;4961245;28;20042;-69
2021/03/12 00:38:03;;;;;;;1.65;0.10;;;5.90;82.40;;;4.49;77.94;95428.03;4948242;28;20528;-69
2021/03/12 00:40:36;;;;;;;0.20;0.20;;;5.90;82.60;;;4.48;78.99;95421.19;4980397;28;20106;-69
2021/03/12 00:43:01;;;;;;;0.10;0.10;;;5.90;82.70;;;4.49;78.47;95422.81;4951937;28;20524;-69
2021/03/12 00:45:30;;;;;;;0.77;0.10;;;5.90;82.50;;;4.45;78.60;95419.72;4951348;28;20129;-69
2021/03/12 00:47:56;;;;;;;1.08;0.20;;;5.90;82.80;;;4.46;78.26;95423.97;4935032;23;20090;-72
2021/03/12 00:50:26;;;;;;;0.10;0.10;;;6.00;82.80;;;4.48;79.43;95431.59;4941977;29;20063;-72
2021/03/12 00:52:52;;;;;;;0.68;0.20;;;6.00;82.70;;;4.46;78.57;95436.97;4929730;29;20049;-72
2021/03/12 00:55:18;;;;;;;0.20;0.10;;;5.90;82.50;;;4.43;78.76;95420.88;4948041;29;20124;-72
2021/03/12 00:57:43;;;;;;;0.75;0.20;;;5.90;83.00;;;4.37;78.20;95404.16;4926487;29;20091;-71
2021/03/12 01:00:10;;;;;;;0.82;0.20;;;5.80;83.20;;;4.34;79.16;95414.09;4896274;29;20051;-72
2021/03/12 01:02:36;;;;;;;0.10;0.10;;;5.70;83.30;;;4.28;79.09;95400.75;4911674;29;20776;-72
2021/03/12 01:05:02;;;;;;;0.38;0.20;;;5.70;83.70;;;4.26;79.07;95410.50;4896697;29;20175;-72
2021/03/12 01:07:28;;;;;;;1.30;0.30;;;5.70;83.60;;;4.24;79.35;95396.84;4878999;29;20048;-71
2021/03/12 01:09:54;;;;;;;0.40;0.10;;;5.70;83.60;;;4.25;78.79;95406.28;4918342;29;20075;-72
2021/03/12 01:12:19;;;;;;;0.80;0.20;;;5.70;83.20;;;4.26;79.13;95391.47;4919035;29;20040;-72
2021/03/12 01:14:45;;;;;;;0.10;0.10;;;5.70;83.30;;;4.26;78.99;95396.69;4943937;28;20094;-72
2021/03/12 01:17:11;;;;;;;0.75;0.20;;;5.70;82.80;;;4.26;79.14;95417.50;4936685;29;20471;-72
2021/03/12 01:19:36;;;;;;;0.20;0.20;;;5.70;83.40;;;4.29;79.29;95410.16;4944103;28;20765;-71
2021/03/12 01:22:02;;;;;;;1.58;0.20;;;5.80;83.00;;;4.34;79.04;95401.06;4916427;29;20566;-71
2021/03/12 01:24:28;;;;;;;0.90;0.20;;;5.90;83.30;;;4.36;78.98;95393.91;4910186;29;20036;-71
2021/03/12 01:26:54;;;;;;;0.70;0.30;;;5.90;83.10;;;4.36;79.07;95386.09;4895238;29;20444;-72
2021/03/12 01:29:19;;;;;;;4.13;0.20;;;5.90;82.80;;;4.35;79.24;95384.47;4935744;29;20075;-72
2021/03/12 01:31:45;;;;;;;3.42;0.40;;;5.90;83.00;;;4.36;78.82;95376.50;4895703;29;20115;-71
2021/03/12 01:34:11;;;;;;;1.55;0.10;;;6.00;83.00;;;4.37;78.83;95382.50;4929440;29;20036;-72
2021/03/12 01:36:37;;;;;;;2.20;0.20;;;5.90;82.50;;;4.37;78.94;95387.72;4914750;29;20071;-71
2021/03/12 01:39:03;;;;;;;0.43;0.20;;;5.80;82.30;;;4.37;79.14;95398.13;4924271;29;20043;-72
2021/03/12 01:41:29;;;;;;;0.52;0.30;;;5.90;82.40;;;4.37;78.93;95392.94;4928579;29;20078;-72
2021/03/12 01:43:55;;;;;;;0.60;0.30;;;5.80;82.10;;;4.37;78.87;95401.56;4913871;29;20032;-71
2021/03/12 01:46:21;;;;;;;0.43;0.13;;;5.90;82.70;;;4.37;78.98;95390.31;4928610;29;20555;-71
2021/03/12 01:48:46;;;;;;;2.35;0.35;;;5.90;82.20;;;4.37;78.98;95372.09;4909395;29;20115;-72
2021/03/12 01:51:12;;;;;;;1.00;0.17;;;5.90;81.80;;;4.39;79.16;95388.38;4918122;29;20071;-71
2021/03/12 01:53:38;;;;;;;0.65;0.20;;;5.90;82.00;;;4.39;78.37;95364.94;4925113;29;20163;-72
2021/03/12 01:56:05;;;;;;;1.00;0.20;;;5.90;81.70;;;4.38;78.82;95371.13;4907709;29;20036;-71
2021/03/12 01:58:31;;;;;;;1.30;0.30;;;5.80;82.00;;;4.38;78.54;95368.50;4897228;29;20050;-70
2021/03/12 02:00:57;;;;;;;2.03;0.20;;;5.90;82.10;;;4.38;78.38;95363.31;4919279;29;20427;-70
2021/03/12 02:03:27;;;;;;;1.25;0.20;;;5.90;81.70;;;4.38;78.66;95368.50;4906291;29;20063;-70
2021/03/12 02:05:53;;;;;;;2.60;0.20;;;5.80;81.60;;;4.37;78.53;95352.09;4908472;29;20100;-70
2021/03/12 02:08:18;;;;;;;2.38;0.28;;;5.90;81.60;;;4.37;78.62;95372.09;4928494;29;20420;-70
2021/03/12 02:10:44;;;;;;;1.48;0.22;;;5.80;81.30;;;4.35;78.51;95380.06;4920097;29;20127;-71
2021/03/12 02:13:31;;;;;;;0.25;0.20;;;5.80;81.10;;;4.35;79.46;95376.66;4918956;29;20428;-70
2021/03/12 02:16:11;;;;;;;0.73;0.22;;;5.70;81.80;;;4.32;79.17;95379.59;4896138;29;20048;-70
2021/03/12 02:18:50;;;;;;;0.57;0.30;;;5.70;81.50;;;4.34;79.02;95352.41;4917835;29;20074;-70
2021/03/12 02:21:37;;;;;;;1.75;0.30;;;5.80;80.80;;;4.35;78.84;95374.06;4925973;29;20044;-70
2021/03/12 02:24:32;;;;;;;1.08;0.40;;;5.90;80.70;;;4.33;78.94;95366.41;4888741;29;20087;-70
2021/03/12 02:27:08;;;;;;;0.32;0.10;;;5.80;81.20;;;4.34;78.62;95388.06;4917106;29;20123;-70
2021/03/12 02:29:34;;;;;;;1.73;0.30;;;5.80;80.90;;;4.36;77.75;95396.50;4931885;29;20036;-70
2021/03/12 02:32:01;;;;;;;0.47;0.20;;;5.90;80.80;;;4.36;77.94;95391.31;4932733;29;20043;-70
2021/03/12 02:34:32;;;;;;;2.03;0.20;;;5.80;80.80;;;4.37;78.16;95372.91;4919389;29;20056;-69
2021/03/12 02:37:00;;;;;;;0.28;0.20;;;5.90;80.20;;;4.37;77.96;95390.31;4913660;29;20051;-70
2021/03/12 02:39:27;;;;;;;1.35;0.30;;;5.90;80.30;;;4.39;77.92;95386.56;4904135;29;20035;-70
2021/03/12 02:41:55;;;;;;;2.65;0.20;;;5.80;79.70;;;4.39;77.41;95385.75;4923135;29;20052;-70
2021/03/12 02:44:22;;;;;;;0.52;0.20;;;6.00;79.40;;;4.40;77.27;95388.19;4928777;29;20084;-70
2021/03/12 02:46:48;;;;;;;3.10;0.30;;;5.90;79.30;;;4.41;77.13;95389.81;4931801;29;20055;-70
2021/03/12 02:49:14;;;;;;;0.68;0.20;;;5.90;79.10;;;4.40;77.24;95380.38;4914657;29;20507;-70
2021/03/12 02:51:42;;;;;;;1.38;0.10;;;5.90;79.10;;;4.43;77.14;95402.66;4916423;29;20059;-70
2021/03/12 02:54:07;;;;;;;0.38;0.10;;;5.90;78.80;;;4.40;76.80;95395.19;4918336;29;20416;-71
2021/03/12 02:56:34;;;;;;;2.83;0.40;;;5.90;78.60;;;4.38;76.67;95399.75;4916357;29;20032;-71
2021/03/12 02:58:59;;;;;;;1.25;0.30;;;5.80;78.40;;;4.34;76.48;95408.88;4916024;29;20063;-71
2021/03/12 03:01:26;;;;;;;1.27;0.28;;;5.70;78.70;;;4.32;76.54;95401.25;4946971;28;20095;-71
2021/03/12 03:03:51;;;;;;;2.08;0.30;;;5.80;78.40;;;4.29;76.11;95407.56;4927651;29;20091;-70
2021/03/12 03:06:17;;;;;;;2.03;0.30;;;5.70;77.90;;;4.27;76.12;95400.91;4916094;29;20047;-71
2021/03/12 03:08:44;;;;;;;3.00;0.25;;;5.70;78.20;;;4.25;76.01;95414.09;4928004;29;20547;-71
2021/03/12 03:11:11;;;;;;;0.88;0.10;;;5.80;78.20;;;4.24;75.88;95409.88;4928772;29;20475;-71
2021/03/12 03:13:39;;;;;;;1.23;0.28;;;5.70;78.00;;;4.22;76.31;95414.44;4912283;29;20036;-71
2021/03/12 03:16:06;;;;;;;0.40;0.20;;;5.70;77.60;;;4.21;75.79;95425.81;4911158;29;20083;-71
2021/03/12 03:18:37;;;;;;;1.75;0.30;;;5.70;78.10;;;4.18;76.63;95436.56;4966736;28;20035;-71
2021/03/12 03:21:04;;;;;;;1.75;0.28;;;5.70;77.70;;;4.17;76.00;95442.75;4902866;29;20074;-71
2021/03/12 03:23:29;;;;;;;1.33;0.40;;;5.70;77.60;;;4.17;75.92;95455.75;4931714;29;20066;-71
2021/03/12 03:25:55;;;;;;;0.95;0.30;;;5.70;77.40;;;4.17;75.50;95460.97;4930811;29;20062;-71
2021/03/12 03:28:22;;;;;;;2.00;0.30;;;5.70;77.70;;;4.19;75.62;95468.63;4900040;29;20047;-71
2021/03/12 03:30:48;;;;;;;2.15;0.95;;;5.70;77.20;;;4.19;75.88;95466.00;4914820;29;20040;-71
2021/03/12 03:33:14;;;;;;;0.90;0.20;;;5.70;77.10;;;4.20;75.15;95465.84;4931809;29;20038;-71
2021/03/12 03:35:40;;;;;;;2.67;0.40;;;5.80;77.30;;;4.21;75.57;95475.28;4909245;29;20043;-71
2021/03/12 03:38:06;;;;;;;2.17;0.82;;;5.80;77.10;;;4.22;75.60;95479.50;4929391;29;20654;-71
2021/03/12 03:40:31;;;;;;;1.33;0.28;;;5.70;77.10;;;4.24;75.49;95493.16;4925801;29;20476;-71
2021/03/12 03:42:58;;;;;;;1.20;0.38;;;5.80;77.30;;;4.24;75.54;95480.16;4899477;29;20420;-71
2021/03/12 03:45:27;;;;;;;0.50;0.30;;;5.80;77.30;;;4.27;75.45;95485.03;4912099;29;20039;-71
2021/03/12 03:47:52;;;;;;;1.20;0.28;;;6.00;77.00;;;4.29;75.42;95480.47;4914017;29;20040;-71
2021/03/12 03:50:18;;;;;;;3.90;0.38;;;6.00;76.70;;;4.34;75.37;95487.00;4915610;29;20062;-71
2021/03/12 03:52:44;;;;;;;2.40;0.30;;;6.00;76.40;;;4.35;75.00;95488.63;4902867;29;20036;-71
2021/03/12 03:55:10;;;;;;;8.05;0.50;;;6.00;76.20;;;4.36;75.32;95485.03;4890746;29;20063;-71
2021/03/12 03:57:36;;;;;;;1.65;0.40;;;5.90;75.50;;;4.37;74.65;95490.06;4880203;29;20044;-71
2021/03/12 04:00:04;;;;;;;2.45;0.40;;;6.00;76.00;;;4.38;74.66;95490.88;4886155;29;20040;-72
2021/03/12 04:02:30;;;;;;;2.20;0.35;;;6.00;75.60;;;4.41;74.65;95498.34;4913278;29;20140;-71
2021/03/12 04:04:56;;;;;;;4.38;0.63;;;6.00;75.40;;;4.42;74.66;95497.38;4930012;29;20070;-71
2021/03/12 04:07:21;;;;;;;3.03;0.45;;;6.10;75.20;;;4.44;74.61;95487.59;4915080;29;20040;-71
2021/03/12 04:09:48;;;;;;;2.03;0.45;;;6.10;75.10;;;4.46;74.56;95503.88;4914472;29;21596;-71
2021/03/12 04:12:13;;;;;;;1.73;0.30;;;6.10;75.70;;;4.47;74.07;95502.91;4912761;29;20116;-71
2021/03/12 04:14:39;;;;;;;3.67;0.35;;;6.10;75.20;;;4.47;74.59;95508.09;4900995;29;20031;-70
2021/03/12 04:17:05;;;;;;;0.95;0.20;;;6.10;75.80;;;4.48;74.18;95513.16;4920694;29;20042;-71
2021/03/12 04:19:31;;;;;;;2.10;0.32;;;6.10;76.00;;;4.50;74.60;95518.19;4933246;28;20507;-72
2021/03/12 04:21:57;;;;;;;1.00;0.20;;;6.10;76.50;;;4.49;74.54;95526.97;4897130;29;20165;-71
2021/03/12 04:24:23;;;;;;;1.02;0.38;;;6.10;76.50;;;4.50;74.46;95533.81;4912619;29;20721;-71
2021/03/12 04:26:48;;;;;;;1.08;0.32;;;6.10;76.80;;;4.50;74.85;95532.00;4928133;29;20063;-71
2021/03/12 04:29:16;;;;;;;1.13;0.40;;;6.10;76.80;;;4.50;74.79;95533.81;4899502;29;20039;-73
2021/03/12 04:31:41;;;;;;;3.90;0.40;;;6.10;76.80;;;4.49;74.93;95542.59;4898427;29;20479;-74
2021/03/12 04:34:07;;;;;;;1.65;0.30;;;6.10;76.80;;;4.48;75.06;95556.59;4915992;29;20036;-73
2021/03/12 04:36:33;;;;;;;2.53;0.45;;;6.10;76.90;;;4.46;74.54;95556.75;4927493;29;20048;-77
2021/03/12 04:38:59;;;;;;;4.78;1.00;;;6.10;76.60;;;4.47;74.33;95568.00;4929193;29;20572;-72
2021/03/12 04:41:24;;;;;;;2.17;0.60;;;6.10;76.90;;;4.45;74.99;95577.75;4928265;29;20040;-70
2021/03/12 04:43:50;;;;;;;1.80;0.40;;;6.10;76.90;;;4.46;74.58;95571.56;4939853;28;20062;-71
2021/03/12 04:46:16;;;;;;;2.05;0.90;;;6.10;77.00;;;4.43;74.77;95574.50;4912254;29;20043;-71
2021/03/12 04:48:42;;;;;;;4.38;1.65;;;6.10;76.90;;;4.39;74.99;95568.00;4914165;29;20036;-71
2021/03/12 04:51:11;;;;;;;1.30;0.63;;;6.00;77.00;;;4.36;75.40;95583.97;4930274;29;20098;-71
2021/03/12 04:53:39;;;;;;;1.65;0.30;;;6.00;77.00;;;4.34;75.07;95583.31;4942058;28;20036;-71
2021/03/12 04:56:06;;;;;;;0.17;0.15;;;5.90;76.90;;;4.32;74.84;95588.69;4929226;29;20590;-71
2021/03/12 04:58:32;;;;;;;0.30;0.20;;;5.90;77.10;;;4.28;75.23;95587.34;4897925;29;20031;-71
2021/03/12 05:00:58;;;;;;;2.20;0.20;;;5.80;77.20;;;4.26;75.09;95582.31;4913155;29;20453;-71
2021/03/12 05:03:23;;;;;;;0.30;0.20;;;5.90;77.20;;;4.24;74.77;95580.84;4929771;28;20046;-71
2021/03/12 05:05:50;;;;;;;2.60;0.30;;;5.80;77.00;;;4.21;74.90;95576.78;4924568;29;20074;-71
2021/03/12 05:08:16;;;;;;;2.30;0.40;;;5.80;77.30;;;4.19;75.26;95578.75;4913490;29;20039;-71
2021/03/12 05:10:59;;;;;;;3.72;0.40;;;5.80;77.40;;;4.16;76.01;95581.69;4923155;29;20068;-71
2021/03/12 05:13:24;;;;;;;2.83;0.30;;;5.80;77.40;;;4.14;75.19;95583.63;4928904;29;20472;-72
2021/03/12 05:15:50;;;;;;;1.15;0.40;;;5.70;77.20;;;4.10;75.47;95584.94;4929498;29;20059;-72
2021/03/12 05:18:16;;;;;;;5.63;2.88;;;5.70;77.60;;;4.09;75.37;95592.91;4927792;29;20038;-71
2021/03/12 05:20:42;;;;;;;4.38;1.10;;;5.80;78.40;;;4.06;75.33;95588.81;4896511;29;20120;-70
2021/03/12 05:23:07;;;;;;;3.10;0.50;;;5.60;77.90;;;4.06;75.38;95578.41;4927204;29;20028;-71
2021/03/12 05:25:33;;;;;;;1.63;0.30;;;5.70;77.80;;;4.05;75.45;95581.97;4911179;29;20039;-71
2021/03/12 05:27:59;;;;;;;3.40;1.17;;;5.60;77.80;;;4.05;75.46;95602.78;4926044;29;20043;-71
2021/03/12 05:30:25;;;;;;;2.25;0.25;;;5.70;77.70;;;4.07;75.24;95597.44;4929374;29;20039;-71
2021/03/12 05:32:51;;;;;;;2.50;0.30;;;5.70;77.40;;;4.08;75.39;95605.09;4930029;29;20114;-71
2021/03/12 05:35:17;;;;;;;3.45;0.40;;;5.70;77.40;;;4.10;75.09;95589.31;4922407;29;20040;-71
2021/03/12 05:37:43;;;;;;;3.22;0.50;;;5.80;77.30;;;4.12;75.28;95588.19;4912375;29;20452;-71
2021/03/12 05:40:09;;;;;;;3.25;0.40;;;5.80;77.00;;;4.12;75.24;95598.59;4918553;29;20641;-76
2021/03/12 05:42:35;;;;;;;1.23;0.35;;;5.80;77.00;;;4.12;75.24;95606.41;4925759;29;20132;-73
2021/03/12 05:45:01;;;;;;;0.77;0.20;;;5.70;77.00;;;4.11;75.00;95599.56;4929421;29;20118;-73
2021/03/12 05:47:27;;;;;;;1.10;0.30;;;5.80;76.80;;;4.13;75.26;95599.41;4908406;29;20083;-78
2021/03/12 05:49:56;;;;;;;1.30;0.50;;;5.70;76.70;;;4.13;75.29;95605.44;4881365;29;20050;-74
2021/03/12 05:52:21;;;;;;;0.50;0.28;;;5.80;76.40;;;4.14;74.91;95601.84;4929527;29;20039;-74
2021/03/12 05:54:47;;;;;;;3.28;0.40;;;5.80;76.30;;;4.16;75.00;95610.31;4929350;29;20131;-73
2021/03/12 05:57:13;;;;;;;5.45;0.50;;;5.80;76.00;;;4.17;75.11;95609.34;4921323;29;20175;-74
2021/03/12 05:59:39;;;;;;;2.13;0.50;;;5.80;76.20;;;4.20;75.12;95624.63;4928643;29;20059;-74
2021/03/12 06:02:05;;;;;;;3.13;0.50;;;5.80;76.10;;;4.22;74.91;95627.88;4929316;29;20054;-73
2021/03/12 06:04:31;;;;;;;2.72;0.50;;;5.90;75.70;;;4.25;74.90;95630.16;4927037;29;20038;-74
2021/03/12 06:06:56;;;;;;;0.95;0.30;;;5.90;76.10;;;4.28;74.94;95629.81;4910133;29;20044;-73
2021/03/12 06:09:22;;;;;;;1.48;0.50;;;6.00;75.50;;;4.33;74.37;95637.19;4910325;29;20039;-73
2021/03/12 06:11:52;;;;;;;0.93;0.30;;;6.00;74.60;;;4.37;74.16;95646.28;4908249;29;20613;-74
2021/03/12 06:14:18;;;;;;;2.47;0.30;;;6.10;74.80;;;4.39;74.34;95649.53;4913338;29;20106;-73
2021/03/12 06:16:49;;;;;;;1.40;0.57;;;6.00;74.40;;;4.42;73.51;95640.59;4897088;29;20485;-73
2021/03/12 06:19:19;;;;;;;0.77;0.30;;;6.10;73.90;;;4.45;73.68;95656.69;4925836;29;20038;-73
2021/03/12 06:21:47;;;;;;;2.58;0.47;;;6.10;73.60;;;4.48;73.05;95655.56;4948140;28;20062;-74
2021/03/12 06:24:33;;;;;;;2.53;0.40;;;6.10;72.60;;;4.51;73.15;95670.84;4912757;29;20111;-73
2021/03/12 06:26:59;;;;;;;2.45;0.47;;;6.10;72.90;;;4.51;73.45;95665.66;4929284;29;20119;-74
2021/03/12 06:29:35;;;;;;;4.97;0.70;;;6.10;73.30;;;4.56;72.29;95676.41;4912848;29;20186;-73
2021/03/12 06:32:02;;;;;;;2.72;0.55;;;6.30;72.40;;;4.61;72.78;95681.94;4917582;29;20131;-74
2021/03/12 06:34:28;;;;;;;4.45;1.98;;;6.30;72.00;;;4.64;72.48;95681.63;4909814;29;20037;-73
2021/03/12 06:36:54;;;;;;;5.50;1.45;;;6.30;72.30;;;4.70;72.78;95675.75;4893898;29;20065;-74
2021/03/12 06:39:34;;;;;;;4.35;2.05;;;6.50;71.10;;;4.78;72.18;95682.78;4894080;29;20048;-73
2021/03/12 06:42:09;;;;;;;2.33;0.50;;;6.70;70.40;;;4.84;71.42;95693.34;4908987;29;20216;-74
2021/03/12 06:44:36;;;;;;;4.95;0.70;;;7.00;69.60;;;4.98;71.82;95693.66;4895093;29;20095;-74
2021/03/12 06:47:02;;;;;;;2.17;0.40;;;7.10;67.90;;;5.14;71.33;95696.25;4942265;28;20044;-75
2021/03/12 06:49:28;;;;;;;2.45;0.50;;;7.10;67.80;;;5.23;71.58;95697.88;4909905;29;20035;-76
2021/03/12 06:51:58;;;;;;;4.32;0.57;;;7.10;68.30;;;5.28;71.25;95716.44;4920492;29;20044;-75
2021/03/12 06:54:26;;;;;;;7.35;3.30;;;7.10;68.80;;;5.31;71.15;95708.28;4921301;29;20035;-76
2021/03/12 06:56:52;;;;;;;3.13;1.60;;;7.10;69.10;;;5.32;70.66;95722.13;4908989;29;20057;-69
2021/03/12 06:59:31;;;;;;;2.17;0.60;;;6.90;69.30;;;5.33;70.20;95719.38;4933503;28;20135;-72
2021/03/12 07:02:01;;;;;;;3.40;0.43;;;7.00;68.80;;;5.28;70.27;95721.66;4868799;29;20052;-77
2021/03/12 07:04:28;;;;;;;1.73;0.32;;;6.80;68.80;;;5.26;70.55;95728.84;4899371;29;20138;-71
2021/03/12 07:06:54;;;;;;;1.95;0.43;;;6.80;69.10;;;5.22;70.11;95727.53;4912148;29;20167;-70
2021/03/12 07:09:20;;;;;;;1.25;0.50;;;6.70;69.40;;;5.23;70.38;95737.00;4910983;29;20169;-70
2021/03/12 07:11:57;;;;;;;1.30;0.60;;;6.80;70.10;;;5.25;70.52;95748.06;4914316;29;20062;-72
2021/03/12 07:14:24;;;;;;;2.08;0.75;;;6.80;70.40;;;5.25;70.55;95758.50;4921522;29;20040;-70
2021/03/12 07:16:53;;;;;;;2.28;0.52;;;6.90;69.80;;;5.23;70.57;95757.84;4898870;29;20484;-70
2021/03/12 07:19:19;;;;;;;1.55;0.60;;;6.90;70.20;;;5.25;71.18;95753.28;4927244;29;20205;-70
2021/03/12 07:21:47;;;;;;;2.13;0.90;;;6.90;70.90;;;5.24;70.31;95767.31;4914936;29;20067;-73
2021/03/12 07:24:23;;;;;;;8.20;3.58;;;6.80;70.80;;;5.22;71.23;95764.84;4927983;28;20163;-67
2021/03/12 07:26:59;;;;;;;2.10;0.55;;;6.80;71.50;;;5.23;70.83;95779.53;4908698;29;20040;-71
2021/03/12 07:29:28;;;;;;;2.97;0.50;;;6.80;71.30;;;5.26;70.85;95786.19;4917845;29;20032;-68
2021/03/12 07:31:55;;;;;;;2.95;1.30;;;6.90;70.50;;;5.26;70.98;95783.59;4906089;29;20044;-70
2021/03/12 07:34:30;;;;;;;3.55;1.15;;;7.00;70.60;;;5.26;71.16;95788.81;4925806;29;20411;-71
2021/03/12 07:36:58;;;;;;;3.88;1.08;;;7.00;70.90;;;5.30;70.58;95784.88;4903158;29;20067;-71
2021/03/12 07:39:25;;;;;;;1.98;0.73;;;7.10;70.20;;;5.35;70.20;95795.63;4929588;29;20042;-72
2021/03/12 07:41:51;;;;;;;2.13;0.73;;;7.20;69.70;;;5.40;70.22;95792.53;4938544;29;20056;-72
2021/03/12 07:44:18;;;;;;;2.28;0.55;;;7.20;69.70;;;5.44;70.29;95794.66;4916059;29;20032;-73
2021/03/12 07:46:45;;;;;;;1.80;0.57;;;7.30;68.90;;;5.48;70.70;95784.72;4913556;29;20039;-69
2021/03/12 07:49:32;;;;;;;2.88;0.52;;;8.40;66.40;;;5.93;69.41;95786.78;4918118;29;20044;-70
2021/03/12 07:51:58;;;;;;;4.10;0.70;;;10.40;59.20;;;6.59;71.56;95780.31;4934944;29;20047;-69
2021/03/12 07:54:36;;;;;;;3.10;0.30;;;11.70;53.60;;;7.48;66.83;95785.88;4911373;28;20068;-66
2021/03/12 07:57:08;;;;;;;1.98;0.32;;;13.00;48.90;;;8.14;67.21;95789.44;4926467;29;20049;-68
2021/03/12 07:59:46;;;;;;;2.15;0.40;;;12.20;50.10;;;8.61;63.69;95788.28;4914131;29;20043;-66
2021/03/12 08:02:18;;;;;;;2.20;0.50;;;12.00;50.70;;;8.89;63.14;95791.81;4931521;29;20035;-68
2021/03/12 08:04:46;;;;;;;2.67;0.50;;;11.60;51.20;;;9.01;64.55;95794.75;4927585;29;20063;-69
2021/03/12 08:07:20;;;;;;;2.25;0.50;;;11.60;52.40;;;9.11;61.86;95795.25;4926441;29;20124;-71
2021/03/12 08:09:50;;;;;;;2.58;0.70;;;12.00;50.30;;;9.29;61.98;95795.63;4930288;29;20058;-69
2021/03/12 08:12:35;;;;;;;1.45;0.38;;;13.00;46.80;;;9.67;60.53;95790.06;4918453;29;20134;-69
2021/03/12 08:15:26;;;;;;;2.30;0.50;;;14.30;43.60;;;10.12;57.97;95788.75;4925564;29;20040;-69
2021/03/12 08:17:58;;;;;;;2.15;0.68;;;15.50;40.70;;;10.61;58.66;95778.09;4928671;29;20035;-70
2021/03/12 08:20:28;;;;;;;2.45;0.80;;;16.10;39.30;;;11.13;58.27;95775.84;4926345;29;20125;-67
2021/03/12 08:22:57;;;;;;;1.60;0.80;;;17.10;37.70;;;11.61;57.61;95774.66;4928914;29;20110;-72
2021/03/12 08:25:32;;;;;;;2.08;0.80;;;17.10;36.30;;;12.01;55.29;95768.56;4926097;29;20032;-67
2021/03/12 08:28:07;;;;;;;3.33;0.80;;;17.80;34.10;;;12.37;54.71;95774.16;4910852;29;20063;-68
2021/03/12 08:30:36;;;;;;;2.85;0.80;;;18.00;34.10;;;12.58;57.64;95780.97;4911847;29;20044;-70
2021/03/12 08:33:06;;;;;;;4.35;0.73;;;17.50;33.60;;;12.68;55.13;95765.53;4926334;29;20055;-69
2021/03/12 08:35:41;;;;;;;3.23;0.60;;;17.60;33.40;;;12.88;49.45;95763.56;4911929;29;20388;-67
2021/03/12 08:38:25;;;;;;;4.40;0.70;;;16.60;35.50;;;12.84;49.65;95754.47;4928871;29;20271;-66
2021/03/12 08:41:14;;;;;;;2.38;0.70;;;17.40;35.90;;;13.06;50.44;95756.78;4911818;29;20727;-69
2021/03/12 08:43:43;;;;;;;1.48;0.80;;;17.10;35.20;;;12.98;51.99;95759.69;4924927;29;20071;-69
2021/03/12 08:46:22;;;;;;;1.15;0.45;;;16.40;38.10;;;13.02;48.99;95755.59;4927777;29;20031;-68
2021/03/12 08:48:49;;;;;;;2.15;0.95;;;16.90;36.30;;;13.08;52.98;95754.72;4928047;28;20484;-68
2021/03/12 08:51:18;;;;;;;3.78;0.80;;;17.40;35.00;;;13.34;51.34;95761.69;4928023;29;20087;-67
2021/03/12 08:53:55;;;;;;;9.35;5.07;;;18.10;32.80;;;13.49;48.43;95751.63;4913750;28;20069;-68
2021/03/12 08:56:26;;;;;;;2.35;0.80;;;17.10;35.90;;;13.55;47.89;95756.06;4914990;29;20520;-71
2021/03/12 08:58:52;;;;;;;3.63;0.95;;;17.20;35.20;;;13.70;51.97;95748.63;4905136;29;20040;-67
2021/03/12 09:01:26;;;;;;;3.60;0.80;;;18.30;34.80;;;13.92;48.93;95762.25;4913025;29;20042;-67
2021/03/12 09:03:54;;;;;;;4.13;1.00;;;17.60;33.60;;;13.95;49.06;95753.88;4909130;29;20042;-66
2021/03/12 09:06:29;;;;;;;2.80;0.65;;;17.00;34.90;;;13.68;46.82;95757.78;4911297;29;20188;-69
2021/03/12 09:08:56;;;;;;;1.38;0.50;;;15.50;37.40;;;13.28;49.27;95759.91;4927239;29;20124;-68
2021/03/12 09:11:25;;;;;;;4.60;0.60;;;14.60;38.70;;;12.66;48.20;95756.97;4929758;29;20056;-67
2021/03/12 09:13:51;;;;;;;2.33;0.77;;;13.40;41.90;;;12.06;49.83;95745.03;4902251;29;20067;-67
2021/03/12 09:16:25;;;;;;;2.38;0.65;;;13.00;43.30;;;11.65;49.02;95759.25;4897817;29;20036;-67
2021/03/12 09:18:53;;;;;;;2.80;0.68;;;12.80;44.20;;;11.23;50.15;95760.44;4920272;29;20032;-72
2021/03/12 09:21:21;;;;;;;3.45;0.70;;;12.40;44.80;;;10.91;49.69;95754.94;4911661;29;20048;-67
2021/03/12 09:24:00;;;;;;;4.55;0.65;;;12.30;45.00;;;10.74;49.01;95743.16;4926658;29;20074;-67
2021/03/12 09:26:28;;;;;;;2.75;0.60;;;12.20;45.40;;;10.77;50.76;95734.88;4911963;29;20043;-70
2021/03/12 09:29:08;;;;;;;3.80;1.30;;;13.50;43.30;;;11.16;48.76;95743.84;4930314;29;20038;-66
2021/03/12 09:31:40;;;;;;;5.50;2.60;;;14.00;40.90;;;11.37;49.22;95751.56;4942651;28;20040;-67
2021/03/12 09:34:09;;;;;;;1.90;0.70;;;14.10;40.10;;;11.60;49.24;95740.63;4910228;29;20036;-67
2021/03/12 09:36:42;;;;;;;4.65;0.65;;;14.00;40.20;;;12.16;48.33;95743.56;4913585;29;20122;-68
2021/03/12 09:39:21;;;;;;;3.55;0.50;;;15.80;37.80;;;12.95;46.92;95728.44;4897636;29;20496;-68
2021/03/12 09:42:03;;;;;;;3.40;0.60;;;16.40;35.30;;;13.30;44.60;95724.34;4914477;29;20043;-69
2021/03/12 09:44:28;;;;;;;1.70;0.60;;;15.90;35.50;;;13.63;47.00;95725.94;4929394;29;20058;-70
2021/03/12 09:46:59;;;;;;;2.40;0.55;;;16.60;34.60;;;13.99;45.34;95723.31;4897722;29;20507;-67
2021/03/12 09:49:46;;;;;;;2.25;0.70;;;17.10;33.50;;;14.43;42.29;95721.44;4921148;29;20457;-67
2021/03/12 09:52:14;;;;;;;1.23;0.40;;;17.50;31.90;;;14.80;43.57;95727.50;4930481;29;20047;-68
2021/03/12 09:54:42;;;;;;;2.30;0.55;;;18.20;32.40;;;15.15;44.38;95719.66;4914817;29;20039;-68
2021/03/12 09:57:09;;;;;;;1.85;0.50;;;18.90;30.20;;;15.62;44.26;95719.78;4928869;29;20044;-70
2021/03/12 09:59:37;;;;;;;1.30;0.60;;;19.50;29.60;;;16.03;42.97;95704.78;4915961;29;20412;-70
2021/03/12 10:02:07;;;;;;;3.15;0.65;;;19.00;29.80;;;16.15;40.44;95708.25;4929323;29;20535;-68
2021/03/12 10:04:38;;;;;;;1.27;0.70;;;18.30;29.60;;;15.71;41.89;95713.09;4947276;28;20697;-67
2021/03/12 10:07:09;;;;;;;4.28;0.73;;;17.00;32.00;;;15.29;41.21;95723.72;4916727;29;20042;-69
2021/03/12 10:09:42;;;;;;;1.60;0.68;;;16.50;33.30;;;14.81;41.43;95704.47;4913414;29;20130;-67
2021/03/12 10:12:22;;;;;;;2.10;0.50;;;15.80;35.00;;;14.33;41.18;95705.25;4902778;29;20048;-67
2021/03/12 10:15:07;;;;;;;4.22;2.00;;;15.60;36.20;;;13.95;42.46;95714.22;4929640;29;20043;-68
2021/03/12 10:17:35;;;;;;;4.72;2.35;;;15.20;36.40;;;13.60;43.21;95724.53;4902771;29;20527;-69
2021/03/12 10:20:07;;;;;;;2.35;0.65;;;14.90;37.10;;;13.34;42.69;95712.31;4913425;29;20028;-66
2021/03/12 10:22:39;;;;;;;1.73;0.60;;;14.70;37.90;;;13.01;42.66;95717.00;4895228;29;20039;-67
2021/03/12 10:25:30;;;;;;;3.95;0.88;;;14.10;37.70;;;12.65;43.18;95701.78;4920354;29;20028;-67
2021/03/12 10:27:58;;;;;;;1.75;0.57;;;13.80;38.40;;;12.34;44.25;95705.19;4897414;29;20143;-67
2021/03/12 10:30:30;;;;;;;4.43;0.95;;;13.50;39.50;;;12.09;43.96;95713.78;4912188;29;20044;-68
2021/03/12 10:33:01;;;;;;;3.47;0.90;;;13.20;39.90;;;11.71;44.71;95700.47;4926348;29;20095;-68
2021/03/12 10:35:47;;;;;;;2.17;0.70;;;12.70;41.40;;;11.41;44.71;95700.09;4923423;28;20044;-69
2021/03/12 10:38:27;;;;;;;3.05;0.60;;;12.40;41.60;;;11.09;44.22;95698.25;4948264;29;20047;-69